^^
Meteo Knjazevac Station Historical Data
Daily Summary for July 4, 2021 Units:  English    Metric   Both
Daily Weekly Monthly Yearly Custom
  High: Low: Average:
Temperature: 76.8 °F 41.7 °F 59.5 °F
Dew Point: 49.3 °F 37.8 °F 44.3 °F
Humidity: 86% 29% 60%
Wind Speed: 7mph 0mph 1.9mph
Wind Gust: 12mph - -
Wind- - SW
Pressure: 30.24 in 29.99 in -
Precipitation: 0.00 in    
Historical Graphs
 
 
Tabular Data for July 4, 2021
Time Temperature Dew Point Pressure Wind Wind Speed Wind Gust Humidity Rainfall Rate (Hourly) solar Conditions
00:00 56.3 °F 45.9 °F 30.22 in Calm   2 mph 68% 0.00 in 0 W/m2
00:10 56.1 °F 45.3 °F 30.22 in Calm   2 mph 67% 0.00 in 0 W/m2
00:20 55.9 °F 44.3 °F 30.22 in Calm   4 mph 65% 0.00 in 0 W/m2
00:30 55.8 °F 44.2 °F 30.22 in Calm   2 mph 65% 0.00 in 0 W/m2
00:40 55.6 °F 44.8 °F 30.22 in North 2 mph 2 mph 67% 0.00 in 0 W/m2
00:50 55.2 °F 44.4 °F 30.22 in North 1 mph 2 mph 67% 0.00 in 0 W/m2
01:00 54.9 °F 43.3 °F 30.22 in North 2 mph 5 mph 65% 0.00 in 0 W/m2
01:10 54.7 °F 43.1 °F 30.22 in North 1 mph 4 mph 65% 0.00 in 0 W/m2
01:20 54.3 °F 43.6 °F 30.22 in NNE 1 mph 2 mph 67% 0.00 in 0 W/m2
01:30 54 °F 44 °F 30.22 in Calm   2 mph 69% 0.00 in 0 W/m2
01:40 53.4 °F 44.6 °F 30.22 in Calm   3 mph 72% 0.00 in 0 W/m2
01:50 53.1 °F 44.6 °F 30.22 in Calm   1 mph 73% 0.00 in 0 W/m2
02:00 52.7 °F 44.3 °F 30.21 in NNW 1 mph 2 mph 73% 0.00 in 0 W/m2
02:10 52.2 °F 44.1 °F 30.21 in NE 1 mph 2 mph 74% 0.00 in 0 W/m2
02:20 51.6 °F 44 °F 30.21 in SSE 1 mph 4 mph 75% 0.00 in 0 W/m2
02:30 51.3 °F 43.6 °F 30.21 in South 2 mph 4 mph 75% 0.00 in 0 W/m2
02:40 50.7 °F 43.1 °F 30.21 in South 2 mph 4 mph 75% 0.00 in 0 W/m2
02:50 50.2 °F 43.2 °F 30.21 in SW 1 mph 3 mph 77% 0.00 in 0 W/m2
03:00 49.6 °F 42.7 °F 30.21 in South 1 mph 4 mph 77% 0.00 in 0 W/m2
03:10 49.4 °F 42.9 °F 30.22 in Calm   2 mph 78% 0.00 in 0 W/m2
03:20 48.9 °F 42.7 °F 30.22 in Calm   2 mph 79% 0.00 in 0 W/m2
03:30 48.6 °F 42.7 °F 30.22 in West 2 mph 3 mph 80% 0.00 in 0 W/m2
03:40 48 °F 42.1 °F 30.22 in WSW 2 mph 4 mph 80% 0.00 in 0 W/m2
03:50 47.5 °F 41.9 °F 30.22 in SW 2 mph 3 mph 81% 0.00 in 0 W/m2
04:00 46.8 °F 41.9 °F 30.22 in WSW 1 mph 3 mph 83% 0.00 in 0 W/m2
04:10 46.2 °F 41.3 °F 30.22 in WNW 3 mph 6 mph 83% 0.00 in 0 W/m2
04:20 46 °F 41.2 °F 30.22 in West 3 mph 5 mph 83% 0.00 in 0 W/m2
04:30 45.7 °F 40.8 °F 30.22 in West 3 mph 5 mph 83% 0.00 in 0 W/m2
04:40 45.1 °F 40.3 °F 30.22 in West 2 mph 6 mph 83% 0.00 in 0 W/m2
04:50 44.4 °F 39.9 °F 30.22 in WSW 2 mph 5 mph 84% 0.00 in 0 W/m2
05:00 43.7 °F 39.2 °F 30.22 in West 2 mph 5 mph 84% 0.00 in 0 W/m2
05:10 43.3 °F 38.8 °F 30.22 in WNW 3 mph 6 mph 84% 0.00 in 0 W/m2
05:20 43 °F 38.8 °F 30.22 in West 3 mph 5 mph 85% 0.00 in 3 W/m2
05:30 42.6 °F 38.4 °F 30.22 in WNW 2 mph 4 mph 85% 0.00 in 9 W/m2
05:40 42.4 °F 38.2 °F 30.22 in West 1 mph 4 mph 85% 0.00 in 17 W/m2
05:50 42.3 °F 38.1 °F 30.22 in WNW 2 mph 5 mph 85% 0.00 in 27 W/m2
06:00 41.9 °F 38 °F 30.23 in West 2 mph 5 mph 86% 0.00 in 46 W/m2
06:10 41.9 °F 38 °F 30.23 in WNW 1 mph 3 mph 86% 0.00 in 65 W/m2
06:20 41.7 °F 37.8 °F 30.23 in WNW 1 mph 3 mph 86% 0.00 in 87 W/m2
06:30 41.9 °F 38 °F 30.24 in Calm   2 mph 86% 0.00 in 113 W/m2
06:40 42.1 °F 38.2 °F 30.24 in Calm   2 mph 86% 0.00 in 141 W/m2
06:50 42.3 °F 38.4 °F 30.23 in Calm   2 mph 86% 0.00 in 168 W/m2
07:00 42.5 °F 38.6 °F 30.24 in WNW 1 mph 2 mph 86% 0.00 in 200 W/m2
07:10 42.8 °F 38.9 °F 30.23 in Calm   2 mph 86% 0.00 in 229 W/m2
07:20 43.3 °F 39.4 °F 30.23 in Calm   2 mph 86% 0.00 in 267 W/m2
07:30 44.1 °F 40.1 °F 30.22 in Calm   2 mph 86% 0.00 in 299 W/m2
07:40 44.8 °F 40.6 °F 30.22 in Calm   2 mph 85% 0.00 in 334 W/m2
07:50 45.5 °F 41.3 °F 30.22 in Calm   2 mph 85% 0.00 in 368 W/m2
08:00 46.3 °F 41.7 °F 30.22 in Calm   1 mph 84% 0.00 in 402 W/m2
08:10 47.2 °F 41.6 °F 30.21 in Calm   2 mph 81% 0.00 in 436 W/m2
08:20 48.2 °F 42.4 °F 30.21 in Calm   3 mph 80% 0.00 in 472 W/m2
08:30 49.5 °F 43.2 °F 30.21 in South 2 mph 3 mph 79% 0.00 in 506 W/m2
08:40 50.4 °F 43.5 °F 30.21 in WSW 1 mph 4 mph 77% 0.00 in 552 W/m2
08:50 52.2 °F 43.8 °F 30.21 in SSE 1 mph 5 mph 73% 0.00 in 518 W/m2
09:00 54.4 °F 44 °F 30.20 in SW 2 mph 3 mph 68% 0.00 in 605 W/m2
09:10 56.2 °F 44.1 °F 30.20 in SW 1 mph 4 mph 64% 0.00 in 635 W/m2
09:20 58 °F 44.1 °F 30.19 in SW 2 mph 4 mph 60% 0.00 in 664 W/m2
09:30 59 °F 42.8 °F 30.19 in WSW 3 mph 6 mph 55% 0.00 in 690 W/m2
09:40 59.9 °F 43.2 °F 30.19 in WNW 1 mph 6 mph 54% 0.00 in 714 W/m2
09:50 61 °F 43.8 °F 30.18 in NW 1 mph 5 mph 53% 0.00 in 737 W/m2
10:00 61.9 °F 44.1 °F 30.18 in NNW 2 mph 6 mph 52% 0.00 in 759 W/m2
10:10 62.4 °F 43.5 °F 30.18 in NW 3 mph 7 mph 50% 0.00 in 779 W/m2
10:20 62.8 °F 44.9 °F 30.18 in West 1 mph 5 mph 52% 0.00 in 799 W/m2
10:30 63.7 °F 43.6 °F 30.18 in WNW 1 mph 5 mph 48% 0.00 in 817 W/m2
10:40 64.8 °F 44.1 °F 30.17 in NNE 2 mph 6 mph 47% 0.00 in 116 W/m2
10:50 65.1 °F 43.2 °F 30.17 in WSW 2 mph 5 mph 45% 0.00 in 849 W/m2
11:00 65.5 °F 44.7 °F 30.16 in WNW 2 mph 8 mph 47% 0.00 in 297 W/m2
11:10 65.8 °F 43.9 °F 30.16 in NE 3 mph 6 mph 45% 0.00 in 575 W/m2
11:20 66.4 °F 45.5 °F 30.16 in NNE 2 mph 7 mph 47% 0.00 in 864 W/m2
11:30 66.4 °F 44.4 °F 30.16 in NNW 2 mph 6 mph 45% 0.00 in 896 W/m2
11:40 67.1 °F 44.5 °F 30.15 in East 2 mph 7 mph 44% 0.00 in 851 W/m2
11:50 67.8 °F 45.1 °F 30.15 in NNE 1 mph 8 mph 44% 0.00 in 798 W/m2
12:00 68.2 °F 44.8 °F 30.14 in East 3 mph 8 mph 43% 0.00 in 915 W/m2
12:10 68.9 °F 46.1 °F 30.14 in NW 2 mph 8 mph 44% 0.00 in 918 W/m2
12:20 69.4 °F 46.6 °F 30.14 in NE 2 mph 8 mph 44% 0.00 in 857 W/m2
12:30 69.4 °F 47.2 °F 30.13 in NNE 1 mph 7 mph 45% 0.00 in 812 W/m2
12:40 69.8 °F 46.3 °F 30.13 in North 3 mph 6 mph 43% 0.00 in 799 W/m2
12:50 70 °F 47.1 °F 30.13 in NNE 1 mph 8 mph 44% 0.00 in 820 W/m2
13:00 70.4 °F 46.8 °F 30.12 in ENE 3 mph 8 mph 43% 0.00 in 850 W/m2
13:10 71.1 °F 47.5 °F 30.11 in NNW 1 mph 6 mph 43% 0.00 in 836 W/m2
13:20 71.4 °F 47.7 °F 30.11 in NNE 5 mph 8 mph 43% 0.00 in 748 W/m2
13:30 71.4 °F 47.7 °F 30.11 in NNW 2 mph 7 mph 43% 0.00 in 663 W/m2
13:40 72 °F 48.2 °F 30.11 in North 2 mph 6 mph 43% 0.00 in 654 W/m2
13:50 72.1 °F 48.4 °F 30.10 in NNW 2 mph 7 mph 43% 0.00 in 786 W/m2
14:00 72.6 °F 48.8 °F 30.10 in WNW 3 mph 6 mph 43% 0.00 in 850 W/m2
14:10 72.3 °F 46.6 °F 30.09 in SE 3 mph 8 mph 40% 0.00 in 834 W/m2
14:20 72.1 °F 46.5 °F 30.09 in NNW 5 mph 8 mph 40% 0.00 in 818 W/m2
14:30 72.1 °F 45.8 °F 30.08 in SE 2 mph 6 mph 39% 0.00 in 584 W/m2
14:40 72.1 °F 46.5 °F 30.07 in North 1 mph 6 mph 40% 0.00 in 742 W/m2
14:50 73.2 °F 47.4 °F 30.07 in ESE 2 mph 6 mph 40% 0.00 in 759 W/m2
15:00 74.1 °F 48.2 °F 30.07 in WSW 2 mph 6 mph 40% 0.00 in 738 W/m2
15:10 74.5 °F 47.2 °F 30.07 in West 2 mph 5 mph 38% 0.00 in 715 W/m2
15:20 74.6 °F 47.3 °F 30.06 in South 2 mph 7 mph 38% 0.00 in 690 W/m2
15:30 74.7 °F 48.1 °F 30.05 in NE 2 mph 6 mph 39% 0.00 in 665 W/m2
15:40 75.3 °F 47.9 °F 30.05 in NW 3 mph 7 mph 38% 0.00 in 639 W/m2
15:50 75.7 °F 48.3 °F 30.05 in WSW 1 mph 7 mph 38% 0.00 in 612 W/m2
16:00 76 °F 45.6 °F 30.05 in WSW 7 mph 12 mph 34% 0.00 in 584 W/m2
16:10 76.3 °F 44.2 °F 30.04 in WSW 6 mph 12 mph 32% 0.00 in 514 W/m2
16:20 76.1 °F 44.1 °F 30.04 in SW 2 mph 8 mph 32% 0.00 in 414 W/m2
16:30 76.2 °F 45 °F 30.03 in SW 3 mph 7 mph 33% 0.00 in 443 W/m2
16:40 76.3 °F 45.1 °F 30.03 in SSW 3 mph 7 mph 33% 0.00 in 454 W/m2
16:50 76.8 °F 44.7 °F 30.03 in South 2 mph 5 mph 32% 0.00 in 435 W/m2
17:00 76.6 °F 42 °F 30.03 in WSW 3 mph 8 mph 29% 0.00 in 383 W/m2
17:10 76.3 °F 47.4 °F 30.03 in North 6 mph 9 mph 36% 0.00 in 290 W/m2
17:20 75.9 °F 48.5 °F 30.02 in North 2 mph 7 mph 38% 0.00 in 226 W/m2
17:30 75.2 °F 48.5 °F 30.02 in North 5 mph 10 mph 39% 0.00 in 148 W/m2
17:40 74.1 °F 47.5 °F 30.01 in North 3 mph 9 mph 39% 0.00 in 171 W/m2
17:50 73.6 °F 49.1 °F 30.01 in North 5 mph 8 mph 42% 0.00 in 242 W/m2
18:00 73.4 °F 48.9 °F 30.01 in North 3 mph 9 mph 42% 0.00 in 218 W/m2
18:10 73.2 °F 49.3 °F 30.01 in North 5 mph 8 mph 43% 0.00 in 114 W/m2
18:20 72.6 °F 48.8 °F 30.01 in NNW 2 mph 7 mph 43% 0.00 in 160 W/m2
18:30 72.4 °F 49.3 °F 30.00 in North 5 mph 9 mph 44% 0.00 in 132 W/m2
18:40 71.8 °F 48.7 °F 30.00 in North 6 mph 10 mph 44% 0.00 in 96 W/m2
18:50 71.2 °F 48.1 °F 30.00 in NNW 3 mph 7 mph 44% 0.00 in 42 W/m2
19:00 70.3 °F 47.9 °F 30.00 in NNW 3 mph 8 mph 45% 0.00 in 38 W/m2
19:10 69.4 °F 47.1 °F 30.00 in North 5 mph 7 mph 45% 0.00 in 24 W/m2
19:20 68.5 °F 46.3 °F 30.00 in North 3 mph 7 mph 45% 0.00 in 18 W/m2
19:30 67.7 °F 46.8 °F 29.99 in North 2 mph 5 mph 47% 0.00 in 4 W/m2
19:40 66.9 °F 47.1 °F 29.99 in SSW 1 mph 4 mph 49% 0.00 in 0 W/m2
19:50 66 °F 46.8 °F 30.00 in WSW 1 mph 2 mph 50% 0.00 in 0 W/m2
20:00 65.2 °F 47.2 °F 30.00 in SW 1 mph 2 mph 52% 0.00 in 0 W/m2
20:10 64.1 °F 47.1 °F 30.00 in SSW 2 mph 3 mph 54% 0.00 in 0 W/m2
20:20 63.1 °F 46.6 °F 30.00 in SW 1 mph 2 mph 55% 0.00 in 0 W/m2
20:30 62.2 °F 46.8 °F 30.00 in SSW 2 mph 3 mph 57% 0.00 in 0 W/m2
20:40 61.3 °F 46.9 °F 30.00 in SW 2 mph 3 mph 59% 0.00 in 0 W/m2
20:50 60.4 °F 46 °F 30.00 in SW 2 mph 4 mph 59% 0.00 in 0 W/m2
21:00 59.8 °F 45.9 °F 30.01 in SW 2 mph 2 mph 60% 0.00 in 0 W/m2
21:10 59.1 °F 46.1 °F 30.01 in SW 1 mph 2 mph 62% 0.00 in 0 W/m2
21:20 58.3 °F 45.7 °F 30.00 in WSW 3 mph 4 mph 63% 0.00 in 0 W/m2
21:30 57.6 °F 45.5 °F 30.00 in West 3 mph 5 mph 64% 0.00 in 0 W/m2
21:40 56.8 °F 44.8 °F 30.00 in WSW 2 mph 5 mph 64% 0.00 in 0 W/m2
21:50 56.1 °F 44.5 °F 30.01 in West 3 mph 5 mph 65% 0.00 in 0 W/m2
22:00 55.6 °F 44.8 °F 30.01 in West 3 mph 5 mph 67% 0.00 in 0 W/m2
22:10 55.2 °F 44.8 °F 30.01 in West 1 mph 5 mph 68% 0.00 in 0 W/m2
22:20 54.5 °F 44.2 °F 30.01 in WSW 1 mph 2 mph 68% 0.00 in 0 W/m2
22:30 53.8 °F 43.8 °F 30.01 in West 1 mph 2 mph 69% 0.00 in 0 W/m2
22:40 53.5 °F 44 °F 30.02 in South 1 mph 3 mph 70% 0.00 in 0 W/m2
22:50 53.4 °F 44.6 °F 30.01 in Calm   4 mph 72% 0.00 in 0 W/m2
23:00 53.2 °F 44.4 °F 30.01 in Calm   2 mph 72% 0.00 in 0 W/m2
23:10 52.7 °F 44.3 °F 30.02 in Calm   3 mph 73% 0.00 in 0 W/m2
23:20 52.3 °F 43.9 °F 30.02 in NW 1 mph 3 mph 73% 0.00 in 0 W/m2
23:30 51.7 °F 43.7 °F 30.02 in WNW 1 mph 2 mph 74% 0.00 in 0 W/m2
23:40 50.9 °F 42.9 °F 30.01 in West 2 mph 3 mph 74% 0.00 in 0 W/m2
23:50 50.4 °F 42.7 °F 30.01 in Calm   2 mph 75% 0.00 in 0 W/m2
Knjazevac, Serbia
Compliments of Weather Underground - 2 mb